sensor_id;sensor_type;location;lat;lon;timestamp;pressure;altitude;pressure_sealevel;temperature;humidity
80128;BME280;69440;52.118;5.408;2023-04-29T00:01:34;101618.78;;;9.84;89.67
80128;BME280;69440;52.118;5.408;2023-04-29T00:04:01;101625.16;;;9.81;89.50
80128;BME280;69440;52.118;5.408;2023-04-29T00:06:28;101633.31;;;9.78;89.61
80128;BME280;69440;52.118;5.408;2023-04-29T00:08:55;101631.56;;;9.77;89.84
80128;BME280;69440;52.118;5.408;2023-04-29T00:11:22;101629.03;;;9.74;90.03
80128;BME280;69440;52.118;5.408;2023-04-29T00:13:48;101631.56;;;9.77;89.93
80128;BME280;69440;52.118;5.408;2023-04-29T00:16:15;101633.31;;;9.78;89.55
80128;BME280;69440;52.118;5.408;2023-04-29T00:18:41;101633.16;;;9.83;89.78
80128;BME280;69440;52.118;5.408;2023-04-29T00:21:07;101632.28;;;9.82;89.65
80128;BME280;69440;52.118;5.408;2023-04-29T00:23:34;101628.88;;;9.77;89.30
80128;BME280;69440;52.118;5.408;2023-04-29T00:26:01;101632.50;;;9.76;89.59
80128;BME280;69440;52.118;5.408;2023-04-29T00:28:27;101637.72;;;9.81;89.98
80128;BME280;69440;52.118;5.408;2023-04-29T00:30:54;101637.88;;;9.76;89.57
80128;BME280;69440;52.118;5.408;2023-04-29T00:33:21;101645.13;;;9.74;89.58
80128;BME280;69440;52.118;5.408;2023-04-29T00:35:47;101650.44;;;9.76;89.35
80128;BME280;69440;52.118;5.408;2023-04-29T00:38:14;101653.31;;;9.71;89.38
80128;BME280;69440;52.118;5.408;2023-04-29T00:40:41;101647.00;;;9.72;89.77
80128;BME280;69440;52.118;5.408;2023-04-29T00:43:08;101653.31;;;9.71;89.54
80128;BME280;69440;52.118;5.408;2023-04-29T00:45:35;101660.44;;;9.72;89.34
80128;BME280;69440;52.118;5.408;2023-04-29T00:48:01;101658.63;;;9.73;89.44
80128;BME280;69440;52.118;5.408;2023-04-29T00:50:28;101662.25;;;9.72;89.63
80128;BME280;69440;52.118;5.408;2023-04-29T00:52:54;101656.81;;;9.73;89.72
80128;BME280;69440;52.118;5.408;2023-04-29T00:55:22;101657.75;;;9.72;89.45
80128;BME280;69440;52.118;5.408;2023-04-29T00:57:49;101657.75;;;9.72;89.74
80128;BME280;69440;52.118;5.408;2023-04-29T01:00:18;101668.47;;;9.72;89.68
80128;BME280;69440;52.118;5.408;2023-04-29T01:02:46;101663.25;;;9.69;90.09
80128;BME280;69440;52.118;5.408;2023-04-29T01:05:13;101673.84;;;9.72;89.93
80128;BME280;69440;52.118;5.408;2023-04-29T01:10:45;101671.22;;;9.71;90.16
80128;BME280;69440;52.118;5.408;2023-04-29T01:13:28;101671.09;;;9.74;89.79
80128;BME280;69440;52.118;5.408;2023-04-29T01:16:24;101678.28;;;9.73;89.75
80128;BME280;69440;52.118;5.408;2023-04-29T01:18:57;101681.91;;;9.72;89.45
80128;BME280;69440;52.118;5.408;2023-04-29T01:21:27;101685.41;;;9.74;89.11
80128;BME280;69440;52.118;5.408;2023-04-29T01:23:53;101682.72;;;9.74;89.67
80128;BME280;69440;52.118;5.408;2023-04-29T01:26:23;101681.97;;;9.71;89.10
80128;BME280;69440;52.118;5.408;2023-04-29T01:29:01;101699.88;;;9.70;90.05
80128;BME280;69440;52.118;5.408;2023-04-29T01:31:52;101697.19;;;9.70;90.02
80128;BME280;69440;52.118;5.408;2023-04-29T01:34:30;101698.00;;;9.72;89.80
80128;BME280;69440;52.118;5.408;2023-04-29T01:37:41;101699.81;;;9.72;89.97
80128;BME280;69440;52.118;5.408;2023-04-29T01:40:18;101706.25;;;9.68;89.86
80128;BME280;69440;52.118;5.408;2023-04-29T01:43:01;101709.94;;;9.65;89.98
80128;BME280;69440;52.118;5.408;2023-04-29T01:45:30;101707.19;;;9.67;89.82
80128;BME280;69440;52.118;5.408;2023-04-29T01:47:57;101713.38;;;9.69;89.66
80128;BME280;69440;52.118;5.408;2023-04-29T01:50:25;101718.88;;;9.65;89.31
80128;BME280;69440;52.118;5.408;2023-04-29T01:52:51;101713.38;;;9.69;89.72
80128;BME280;69440;52.118;5.408;2023-04-29T01:55:18;101715.19;;;9.68;89.27
80128;BME280;69440;52.118;5.408;2023-04-29T01:57:44;101710.69;;;9.69;89.52
80128;BME280;69440;52.118;5.408;2023-04-29T02:00:11;101710.50;;;9.73;89.46
80128;BME280;69440;52.118;5.408;2023-04-29T02:02:37;101717.81;;;9.70;89.40
80128;BME280;69440;52.118;5.408;2023-04-29T02:05:04;101720.41;;;9.71;89.47
80128;BME280;69440;52.118;5.408;2023-04-29T02:07:31;101719.56;;;9.71;89.33
80128;BME280;69440;52.118;5.408;2023-04-29T02:09:57;101721.34;;;9.70;89.36
80128;BME280;69440;52.118;5.408;2023-04-29T02:12:23;101726.66;;;9.72;89.91
80128;BME280;69440;52.118;5.408;2023-04-29T02:14:53;101724.84;;;9.72;88.99
80128;BME280;69440;52.118;5.408;2023-04-29T02:17:19;101735.47;;;9.75;89.40
80128;BME280;69440;52.118;5.408;2023-04-29T02:19:46;101732.09;;;9.70;88.79
80128;BME280;69440;52.118;5.408;2023-04-29T02:22:12;101728.59;;;9.68;88.91
80128;BME280;69440;52.118;5.408;2023-04-29T02:24:40;101740.16;;;9.70;89.36
80128;BME280;69440;52.118;5.408;2023-04-29T02:27:06;101744.50;;;9.73;89.40
80128;BME280;69440;52.118;5.408;2023-04-29T02:29:33;101747.25;;;9.71;88.99
80128;BME280;69440;52.118;5.408;2023-04-29T02:31:59;101746.38;;;9.71;89.13
80128;BME280;69440;52.118;5.408;2023-04-29T02:34:26;101740.97;;;9.72;88.77
80128;BME280;69440;52.118;5.408;2023-04-29T02:36:53;101751.56;;;9.75;89.24
80128;BME280;69440;52.118;5.408;2023-04-29T02:39:19;101750.63;;;9.76;89.06
80128;BME280;69440;52.118;5.408;2023-04-29T02:41:46;101760.50;;;9.76;88.97
80128;BME280;69440;52.118;5.408;2023-04-29T02:44:12;101768.47;;;9.77;88.82
80128;BME280;69440;52.118;5.408;2023-04-29T02:46:38;101772.09;;;9.76;88.83
80128;BME280;69440;52.118;5.408;2023-04-29T02:49:06;101760.50;;;9.76;88.86
80128;BME280;69440;52.118;5.408;2023-04-29T02:51:33;101764.00;;;9.78;88.71
80128;BME280;69440;52.118;5.408;2023-04-29T02:53:59;101772.03;;;9.78;89.04
80128;BME280;69440;52.118;5.408;2023-04-29T02:56:25;101768.41;;;9.79;88.97
80128;BME280;69440;52.118;5.408;2023-04-29T02:58:52;101764.00;;;9.78;89.30
80128;BME280;69440;52.118;5.408;2023-04-29T03:01:19;101772.09;;;9.76;89.50
80128;BME280;69440;52.118;5.408;2023-04-29T03:03:45;101776.53;;;9.77;89.16
80128;BME280;69440;52.118;5.408;2023-04-29T03:06:12;101777.34;;;9.79;88.82
80128;BME280;69440;52.118;5.408;2023-04-29T03:08:38;101782.63;;;9.82;89.05
80128;BME280;69440;52.118;5.408;2023-04-29T03:11:05;101779.88;;;9.84;88.78
80128;BME280;69440;52.118;5.408;2023-04-29T03:13:31;101790.69;;;9.82;89.15
80128;BME280;69440;52.118;5.408;2023-04-29T03:15:58;101791.72;;;9.78;88.38
80128;BME280;69440;52.118;5.408;2023-04-29T03:18:25;101789.88;;;9.80;88.50
80128;BME280;69440;52.118;5.408;2023-04-29T03:20:52;101793.53;;;9.78;88.33
80128;BME280;69440;52.118;5.408;2023-04-29T03:23:19;101794.38;;;9.78;89.44
80128;BME280;69440;52.118;5.408;2023-04-29T03:25:45;101798.00;;;9.77;88.03
80128;BME280;69440;52.118;5.408;2023-04-29T03:28:11;101802.44;;;9.78;88.58
80128;BME280;69440;52.118;5.408;2023-04-29T03:30:38;101800.63;;;9.79;88.32
80128;BME280;69440;52.118;5.408;2023-04-29T03:33:04;101803.44;;;9.76;87.85
80128;BME280;69440;52.118;5.408;2023-04-29T03:35:31;101806.94;;;9.78;88.59
80128;BME280;69440;52.118;5.408;2023-04-29T03:37:57;101794.47;;;9.77;87.20
80128;BME280;69440;52.118;5.408;2023-04-29T03:40:23;101808.88;;;9.74;86.77
80128;BME280;69440;52.118;5.408;2023-04-29T03:42:50;101803.44;;;9.76;87.68
80128;BME280;69440;52.118;5.408;2023-04-29T03:45:16;101810.63;;;9.75;86.95
80128;BME280;69440;52.118;5.408;2023-04-29T03:47:43;101814.25;;;9.74;86.62
80128;BME280;69440;52.118;5.408;2023-04-29T03:50:09;101819.50;;;9.77;87.66
80128;BME280;69440;52.118;5.408;2023-04-29T03:52:37;101818.69;;;9.75;87.26
80128;BME280;69440;52.118;5.408;2023-04-29T03:55:04;101821.44;;;9.74;87.25
80128;BME280;69440;52.118;5.408;2023-04-29T03:57:30;101830.34;;;9.74;86.60
80128;BME280;69440;52.118;5.408;2023-04-29T03:59:56;101822.31;;;9.74;86.36
80128;BME280;69440;52.118;5.408;2023-04-29T04:02:23;101825.78;;;9.76;87.02
80128;BME280;69440;52.118;5.408;2023-04-29T04:04:50;101829.47;;;9.74;86.63
80128;BME280;69440;52.118;5.408;2023-04-29T04:07:16;101831.16;;;9.76;86.72
80128;BME280;69440;52.118;5.408;2023-04-29T04:09:43;101826.72;;;9.75;86.42
80128;BME280;69440;52.118;5.408;2023-04-29T04:12:09;101830.28;;;9.76;86.28
80128;BME280;69440;52.118;5.408;2023-04-29T04:14:36;101833.03;;;9.74;85.75
80128;BME280;69440;52.118;5.408;2023-04-29T04:17:02;101837.72;;;9.69;85.08
80128;BME280;69440;52.118;5.408;2023-04-29T04:19:29;101843.91;;;9.71;85.28
80128;BME280;69440;52.118;5.408;2023-04-29T04:21:56;101842.16;;;9.70;85.50
80128;BME280;69440;52.118;5.408;2023-04-29T04:24:22;101852.00;;;9.70;85.81
80128;BME280;69440;52.118;5.408;2023-04-29T04:26:49;101845.66;;;9.72;85.19
80128;BME280;69440;52.118;5.408;2023-04-29T04:29:15;101844.03;;;9.68;85.26
80128;BME280;69440;52.118;5.408;2023-04-29T04:31:41;101847.59;;;9.69;85.98
80128;BME280;69440;52.118;5.408;2023-04-29T04:34:12;101849.38;;;9.68;84.83
80128;BME280;69440;52.118;5.408;2023-04-29T04:36:38;101853.75;;;9.71;85.35
80128;BME280;69440;52.118;5.408;2023-04-29T04:39:04;101853.63;;;9.74;85.07
80128;BME280;69440;52.118;5.408;2023-04-29T04:41:31;101858.19;;;9.72;84.71
80128;BME280;69440;52.118;5.408;2023-04-29T04:43:57;101856.50;;;9.69;85.13
80128;BME280;69440;52.118;5.408;2023-04-29T04:46:24;101872.63;;;9.69;84.84
80128;BME280;69440;52.118;5.408;2023-04-29T04:48:50;101872.50;;;9.72;85.73
80128;BME280;69440;52.118;5.408;2023-04-29T04:51:17;101884.84;;;9.76;85.70
80128;BME280;69440;52.118;5.408;2023-04-29T04:53:43;101877.63;;;9.78;85.91
80128;BME280;69440;52.118;5.408;2023-04-29T04:56:10;101892.78;;;9.79;85.43
80128;BME280;69440;52.118;5.408;2023-04-29T04:58:36;101900.03;;;9.77;84.70
80128;BME280;69440;52.118;5.408;2023-04-29T05:01:03;101892.78;;;9.79;86.34
80128;BME280;69440;52.118;5.408;2023-04-29T05:03:29;101902.56;;;9.82;85.72
80128;BME280;69440;52.118;5.408;2023-04-29T05:05:57;101903.44;;;9.82;86.03
80128;BME280;69440;52.118;5.408;2023-04-29T05:08:24;101902.38;;;9.86;86.10
80128;BME280;69440;52.118;5.408;2023-04-29T05:10:51;101911.25;;;9.88;85.74
80128;BME280;69440;52.118;5.408;2023-04-29T05:13:19;101903.94;;;9.92;86.05
80128;BME280;69440;52.118;5.408;2023-04-29T05:15:46;101912.88;;;9.92;85.51
80128;BME280;69440;52.118;5.408;2023-04-29T05:18:12;101916.38;;;9.94;85.27
80128;BME280;69440;52.118;5.408;2023-04-29T05:20:39;101920.75;;;9.97;85.96
80128;BME280;69440;52.118;5.408;2023-04-29T05:23:05;101919.69;;;10.01;85.38
80128;BME280;69440;52.118;5.408;2023-04-29T05:25:32;101918.69;;;10.04;85.84
80128;BME280;69440;52.118;5.408;2023-04-29T05:27:58;101919.38;;;10.09;85.58
80128;BME280;69440;52.118;5.408;2023-04-29T05:30:25;101921.09;;;10.11;85.41
80128;BME280;69440;52.118;5.408;2023-04-29T05:32:52;101921.84;;;10.15;86.17
80128;BME280;69440;52.118;5.408;2023-04-29T05:35:18;101929.72;;;10.19;85.42
80128;BME280;69440;52.118;5.408;2023-04-29T05:37:45;101926.06;;;10.22;85.83
80128;BME280;69440;52.118;5.408;2023-04-29T05:40:11;101934.75;;;10.29;85.09
80128;BME280;69440;52.118;5.408;2023-04-29T05:42:38;101936.50;;;10.30;85.12
80128;BME280;69440;52.118;5.408;2023-04-29T05:45:05;101938.13;;;10.34;84.89
80128;BME280;69440;52.118;5.408;2023-04-29T05:47:31;101945.13;;;10.38;84.76
80128;BME280;69440;52.118;5.408;2023-04-29T05:49:58;101934.31;;;10.39;84.41
80128;BME280;69440;52.118;5.408;2023-04-29T05:52:24;101942.09;;;10.47;84.46
80128;BME280;69440;52.118;5.408;2023-04-29T05:54:51;101945.53;;;10.50;84.76
80128;BME280;69440;52.118;5.408;2023-04-29T05:57:17;101952.44;;;10.56;84.20
80128;BME280;69440;52.118;5.408;2023-04-29T05:59:43;101946.88;;;10.61;84.01
80128;BME280;69440;52.118;5.408;2023-04-29T06:02:10;101951.94;;;10.68;84.71
80128;BME280;69440;52.118;5.408;2023-04-29T06:04:37;101957.97;;;10.75;84.09
80128;BME280;69440;52.118;5.408;2023-04-29T06:07:06;101964.16;;;10.77;83.77
80128;BME280;69440;52.118;5.408;2023-04-29T06:09:35;101961.47;;;10.77;82.65
80128;BME280;69440;52.118;5.408;2023-04-29T06:12:01;101969.19;;;10.84;83.60
80128;BME280;69440;52.118;5.408;2023-04-29T06:14:28;101965.44;;;10.88;84.04
80128;BME280;69440;52.118;5.408;2023-04-29T06:16:55;101977.75;;;10.94;83.34
80128;BME280;69440;52.118;5.408;2023-04-29T06:19:21;101974.19;;;10.94;83.02
80128;BME280;69440;52.118;5.408;2023-04-29T06:21:48;101985.88;;;10.93;84.19
80128;BME280;69440;52.118;5.408;2023-04-29T06:24:14;101992.00;;;10.96;83.42
80128;BME280;69440;52.118;5.408;2023-04-29T06:26:41;101987.25;;;11.03;83.70
80128;BME280;69440;52.118;5.408;2023-04-29T06:29:07;101994.00;;;11.13;83.37
80128;BME280;69440;52.118;5.408;2023-04-29T06:31:34;101996.75;;;11.11;83.41
80128;BME280;69440;52.118;5.408;2023-04-29T06:34:00;101999.44;;;11.11;82.93
80128;BME280;69440;52.118;5.408;2023-04-29T06:36:26;101998.63;;;11.09;82.74
80128;BME280;69440;52.118;5.408;2023-04-29T06:38:53;101998.84;;;11.05;82.64
80128;BME280;69440;52.118;5.408;2023-04-29T06:41:20;102004.00;;;11.09;82.83
80128;BME280;69440;52.118;5.408;2023-04-29T06:43:46;102009.19;;;11.14;82.47
80128;BME280;69440;52.118;5.408;2023-04-29T06:46:14;102016.06;;;11.21;82.91
80128;BME280;69440;52.118;5.408;2023-04-29T06:48:40;102025.00;;;11.22;82.00
80128;BME280;69440;52.118;5.408;2023-04-29T06:51:07;102030.44;;;11.20;82.06
80128;BME280;69440;52.118;5.408;2023-04-29T06:53:33;102032.72;;;11.09;82.35
80128;BME280;69440;52.118;5.408;2023-04-29T06:56:00;102031.59;;;11.14;81.84
80128;BME280;69440;52.118;5.408;2023-04-29T06:58:26;102035.97;;;11.17;81.54
80128;BME280;69440;52.118;5.408;2023-04-29T07:00:52;102039.28;;;11.24;81.40
80128;BME280;69440;52.118;5.408;2023-04-29T07:03:19;102046.13;;;11.31;80.30
80128;BME280;69440;52.118;5.408;2023-04-29T07:05:45;102038.06;;;11.31;80.58
80128;BME280;69440;52.118;5.408;2023-04-29T07:08:13;102045.41;;;11.27;81.60
80128;BME280;69440;52.118;5.408;2023-04-29T07:10:40;102046.97;;;11.33;80.42
80128;BME280;69440;52.118;5.408;2023-04-29T07:13:07;102064.88;;;11.34;80.51
80128;BME280;69440;52.118;5.408;2023-04-29T07:15:34;102055.78;;;11.36;80.39
80128;BME280;69440;52.118;5.408;2023-04-29T07:18:04;102059.97;;;11.43;80.55
80128;BME280;69440;52.118;5.408;2023-04-29T07:20:31;102069.38;;;11.54;80.06
80128;BME280;69440;52.118;5.408;2023-04-29T07:22:58;102066.13;;;11.67;79.61
80128;BME280;69440;52.118;5.408;2023-04-29T07:25:27;102075.50;;;11.79;79.41
80128;BME280;69440;52.118;5.408;2023-04-29T07:27:56;102069.09;;;12.02;78.23
80128;BME280;69440;52.118;5.408;2023-04-29T07:30:23;102073.47;;;12.04;78.66
80128;BME280;69440;52.118;5.408;2023-04-29T07:32:50;102074.34;;;12.05;78.03
80128;BME280;69440;52.118;5.408;2023-04-29T07:35:16;102076.09;;;12.06;77.80
80128;BME280;69440;52.118;5.408;2023-04-29T07:37:43;102074.19;;;12.08;77.46
80128;BME280;69440;52.118;5.408;2023-04-29T07:40:12;102083.38;;;12.04;77.78
80128;BME280;69440;52.118;5.408;2023-04-29T07:42:38;102090.09;;;11.94;76.07
80128;BME280;69440;52.118;5.408;2023-04-29T07:45:05;102075.69;;;11.95;77.21
80128;BME280;69440;52.118;5.408;2023-04-29T07:47:32;102086.47;;;11.95;77.33
80128;BME280;69440;52.118;5.408;2023-04-29T07:49:58;102085.63;;;12.13;76.86
80128;BME280;69440;52.118;5.408;2023-04-29T07:52:25;102086.28;;;12.18;75.26
80128;BME280;69440;52.118;5.408;2023-04-29T07:54:51;102095.31;;;12.17;74.98
80128;BME280;69440;52.118;5.408;2023-04-29T07:57:21;102100.31;;;12.26;74.89
80128;BME280;69440;52.118;5.408;2023-04-29T07:59:52;102094.13;;;12.43;75.29
80128;BME280;69440;52.118;5.408;2023-04-29T08:02:18;102099.97;;;12.53;73.65
80128;BME280;69440;52.118;5.408;2023-04-29T08:04:45;102104.50;;;12.71;74.85
80128;BME280;69440;52.118;5.408;2023-04-29T08:07:12;102104.59;;;12.69;74.32
80128;BME280;69440;52.118;5.408;2023-04-29T08:09:38;102112.31;;;12.77;72.70
80128;BME280;69440;52.118;5.408;2023-04-29T08:12:05;102109.84;;;12.91;73.11
80128;BME280;69440;52.118;5.408;2023-04-29T08:14:31;102104.38;;;12.93;72.69
80128;BME280;69440;52.118;5.408;2023-04-29T08:16:58;102120.16;;;12.82;72.09
80128;BME280;69440;52.118;5.408;2023-04-29T08:19:24;102119.81;;;12.70;72.22
80128;BME280;69440;52.118;5.408;2023-04-29T08:21:51;102121.78;;;12.67;72.17
80128;BME280;69440;52.118;5.408;2023-04-29T08:24:17;102121.88;;;12.65;72.81
80128;BME280;69440;52.118;5.408;2023-04-29T08:26:45;102117.28;;;12.67;70.64
80128;BME280;69440;52.118;5.408;2023-04-29T08:29:12;102122.38;;;12.92;72.31
80128;BME280;69440;52.118;5.408;2023-04-29T08:31:39;102119.00;;;13.25;71.00
80128;BME280;69440;52.118;5.408;2023-04-29T08:34:06;102110.09;;;13.59;71.71
80128;BME280;69440;52.118;5.408;2023-04-29T08:36:32;102120.34;;;13.87;70.81
80128;BME280;69440;52.118;5.408;2023-04-29T08:38:59;102111.13;;;14.08;68.70
80128;BME280;69440;52.118;5.408;2023-04-29T08:41:25;102117.63;;;14.21;69.86
80128;BME280;69440;52.118;5.408;2023-04-29T08:43:52;102117.44;;;14.24;67.39
80128;BME280;69440;52.118;5.408;2023-04-29T08:46:18;102122.91;;;13.90;66.44
80128;BME280;69440;52.118;5.408;2023-04-29T08:48:46;102133.69;;;13.55;67.50
80128;BME280;69440;52.118;5.408;2023-04-29T08:51:13;102133.34;;;13.44;68.10
80128;BME280;69440;52.118;5.408;2023-04-29T08:53:40;102127.38;;;13.38;67.73
80128;BME280;69440;52.118;5.408;2023-04-29T08:56:15;102133.69;;;13.55;69.35
80128;BME280;69440;52.118;5.408;2023-04-29T08:58:45;102128.13;;;13.93;69.33
80128;BME280;69440;52.118;5.408;2023-04-29T09:01:13;102130.88;;;14.26;68.79
80128;BME280;69440;52.118;5.408;2023-04-29T09:03:49;102138.31;;;14.55;69.02
80128;BME280;69440;52.118;5.408;2023-04-29T09:06:19;102138.50;;;14.68;67.00
80128;BME280;69440;52.118;5.408;2023-04-29T09:08:47;102140.72;;;14.77;64.87
80128;BME280;69440;52.118;5.408;2023-04-29T09:11:13;102139.47;;;14.67;64.72
80128;BME280;69440;52.118;5.408;2023-04-29T09:13:40;102144.69;;;14.54;65.55
80128;BME280;69440;52.118;5.408;2023-04-29T09:16:13;102150.81;;;14.58;67.09
80128;BME280;69440;52.118;5.408;2023-04-29T09:18:44;102149.09;;;14.40;64.05
80128;BME280;69440;52.118;5.408;2023-04-29T09:21:18;102151.69;;;14.58;67.07
80128;BME280;69440;52.118;5.408;2023-04-29T09:23:50;102154.28;;;14.77;65.35
80128;BME280;69440;52.118;5.408;2023-04-29T09:26:17;102156.22;;;15.07;65.73
80128;BME280;69440;52.118;5.408;2023-04-29T09:28:43;102155.09;;;15.11;63.76
80128;BME280;69440;52.118;5.408;2023-04-29T09:31:11;102156.72;;;14.82;63.10
80128;BME280;69440;52.118;5.408;2023-04-29T09:33:53;102157.00;;;14.60;65.21
80128;BME280;69440;52.118;5.408;2023-04-29T09:36:52;102160.91;;;14.72;66.79
80128;BME280;69440;52.118;5.408;2023-04-29T09:39:24;102166.00;;;15.09;66.22
80128;BME280;69440;52.118;5.408;2023-04-29T09:49:29;102163.66;;;15.96;63.04
80128;BME280;69440;52.118;5.408;2023-04-29T09:51:58;102172.50;;;16.14;62.18
80128;BME280;69440;52.118;5.408;2023-04-29T09:54:29;102163.38;;;16.15;58.52
80128;BME280;69440;52.118;5.408;2023-04-29T09:57:00;102179.66;;;15.85;59.38
80128;BME280;69440;52.118;5.408;2023-04-29T09:59:27;102179.06;;;15.80;60.96
80128;BME280;69440;52.118;5.408;2023-04-29T10:01:55;102177.69;;;15.73;59.69
80128;BME280;69440;52.118;5.408;2023-04-29T10:04:24;102175.09;;;15.71;61.65
80128;BME280;69440;52.118;5.408;2023-04-29T10:06:53;102168.50;;;16.05;59.33
80128;BME280;69440;52.118;5.408;2023-04-29T10:09:21;102168.53;;;16.20;60.91
80128;BME280;69440;52.118;5.408;2023-04-29T10:11:50;102163.53;;;16.42;58.66
80128;BME280;69440;52.118;5.408;2023-04-29T10:14:18;102168.69;;;16.61;59.49
80128;BME280;69440;52.118;5.408;2023-04-29T10:16:49;102174.31;;;16.58;59.06
80128;BME280;69440;52.118;5.408;2023-04-29T10:19:25;102173.50;;;16.27;60.28
80128;BME280;69440;52.118;5.408;2023-04-29T10:21:54;102164.00;;;16.49;61.47
80128;BME280;69440;52.118;5.408;2023-04-29T10:24:24;102162.06;;;16.51;57.33
80128;BME280;69440;52.118;5.408;2023-04-29T10:26:52;102174.38;;;16.42;59.68
80128;BME280;69440;52.118;5.408;2023-04-29T10:29:21;102169.97;;;16.55;59.21
80128;BME280;69440;52.118;5.408;2023-04-29T10:31:49;102176.28;;;16.70;59.15
80128;BME280;69440;52.118;5.408;2023-04-29T10:34:16;102178.22;;;16.82;58.49
80128;BME280;69440;52.118;5.408;2023-04-29T10:36:44;102173.16;;;17.19;60.09
80128;BME280;69440;52.118;5.408;2023-04-29T10:39:18;102178.19;;;17.25;55.47
80128;BME280;69440;52.118;5.408;2023-04-29T10:41:49;102173.47;;;17.41;56.83
80128;BME280;69440;52.118;5.408;2023-04-29T10:44:16;102177.09;;;17.13;56.16
80128;BME280;69440;52.118;5.408;2023-04-29T10:46:42;102178.63;;;16.90;56.42
80128;BME280;69440;52.118;5.408;2023-04-29T10:49:09;102182.88;;;16.94;54.48
80128;BME280;69440;52.118;5.408;2023-04-29T10:51:42;102185.19;;;17.15;56.41
80128;BME280;69440;52.118;5.408;2023-04-29T10:54:17;102177.97;;;17.14;57.75
80128;BME280;69440;52.118;5.408;2023-04-29T10:56:51;102177.47;;;17.35;57.31
80128;BME280;69440;52.118;5.408;2023-04-29T11:01:53;102180.09;;;17.78;54.58
80128;BME280;69440;52.118;5.408;2023-04-29T11:04:20;102168.81;;;17.70;53.54
80128;BME280;69440;52.118;5.408;2023-04-29T11:06:54;102166.28;;;17.81;56.49
80128;BME280;69440;52.118;5.408;2023-04-29T11:09:24;102174.56;;;18.05;53.86
80128;BME280;69440;52.118;5.408;2023-04-29T11:17:12;102176.81;;;18.38;54.92
80128;BME280;69440;52.118;5.408;2023-04-29T11:19:42;102166.22;;;18.08;52.18
80128;BME280;69440;52.118;5.408;2023-04-29T11:27:28;102180.09;;;17.64;53.10
80128;BME280;69440;52.118;5.408;2023-04-29T11:29:56;102172.28;;;17.99;53.10
80128;BME280;69440;52.118;5.408;2023-04-29T11:32:32;102173.09;;;18.26;51.82
80128;BME280;69440;52.118;5.408;2023-04-29T11:35:12;102169.38;;;18.15;52.47
80128;BME280;69440;52.118;5.408;2023-04-29T11:37:40;102170.72;;;18.60;53.71
80128;BME280;69440;52.118;5.408;2023-04-29T11:40:07;102176.06;;;18.49;49.29
80128;BME280;69440;52.118;5.408;2023-04-29T11:42:35;102171.38;;;18.38;52.96
80128;BME280;69440;52.118;5.408;2023-04-29T11:45:02;102175.75;;;18.41;51.65
80128;BME280;69440;52.118;5.408;2023-04-29T11:47:29;102181.50;;;19.00;51.47
80128;BME280;69440;52.118;5.408;2023-04-29T11:50:06;102178.38;;;19.66;50.50
80128;BME280;69440;52.118;5.408;2023-04-29T11:52:35;102169.72;;;20.07;49.15
80128;BME280;69440;52.118;5.408;2023-04-29T11:55:03;102177.75;;;19.50;46.96
80128;BME280;69440;52.118;5.408;2023-04-29T11:57:29;102175.69;;;19.17;48.75
80128;BME280;69440;52.118;5.408;2023-04-29T11:59:57;102178.03;;;19.71;48.81
80128;BME280;69440;52.118;5.408;2023-04-29T12:02:30;102172.84;;;20.49;48.33
80128;BME280;69440;52.118;5.408;2023-04-29T12:05:04;102179.19;;;20.61;44.95
80128;BME280;69440;52.118;5.408;2023-04-29T12:07:32;102173.88;;;21.26;45.39
80128;BME280;69440;52.118;5.408;2023-04-29T12:09:59;102163.97;;;21.57;43.20
80128;BME280;69440;52.118;5.408;2023-04-29T12:12:26;102173.66;;;21.93;42.93
80128;BME280;69440;52.118;5.408;2023-04-29T12:14:53;102162.09;;;22.43;42.43
80128;BME280;69440;52.118;5.408;2023-04-29T12:17:20;102155.69;;;22.00;38.68
80128;BME280;69440;52.118;5.408;2023-04-29T12:19:47;102165.78;;;21.68;41.33
80128;BME280;69440;52.118;5.408;2023-04-29T12:22:14;102162.16;;;22.31;40.36
80128;BME280;69440;52.118;5.408;2023-04-29T12:24:40;102162.16;;;22.31;39.96
80128;BME280;69440;52.118;5.408;2023-04-29T12:27:08;102162.50;;;21.42;40.65
80128;BME280;69440;52.118;5.408;2023-04-29T12:29:38;102164.44;;;21.94;43.38
80128;BME280;69440;52.118;5.408;2023-04-29T12:32:06;102163.06;;;21.68;41.95
80128;BME280;69440;52.118;5.408;2023-04-29T12:34:33;102153.22;;;21.77;42.70
80128;BME280;69440;52.118;5.408;2023-04-29T12:37:00;102153.38;;;22.58;39.78
80128;BME280;69440;52.118;5.408;2023-04-29T12:39:27;102158.69;;;23.11;41.67
80128;BME280;69440;52.118;5.408;2023-04-29T12:41:58;102161.94;;;23.55;38.76
80128;BME280;69440;52.118;5.408;2023-04-29T12:44:25;102164.59;;;23.57;40.40
80128;BME280;69440;52.118;5.408;2023-04-29T12:46:51;102159.72;;;23.99;38.78
80128;BME280;69440;52.118;5.408;2023-04-29T12:49:20;102157.69;;;24.01;37.74
80128;BME280;69440;52.118;5.408;2023-04-29T12:51:49;102156.03;;;24.46;36.39
80128;BME280;69440;52.118;5.408;2023-04-29T12:54:15;102157.81;;;23.80;37.33
80128;BME280;69440;52.118;5.408;2023-04-29T12:56:42;102164.19;;;23.71;37.73
80128;BME280;69440;52.118;5.408;2023-04-29T12:59:09;102164.91;;;24.02;38.90
80128;BME280;69440;52.118;5.408;2023-04-29T13:01:37;102168.34;;;23.56;37.02
80128;BME280;69440;52.118;5.408;2023-04-29T13:04:04;102164.06;;;22.61;38.06
80128;BME280;69440;52.118;5.408;2023-04-29T13:06:34;102165.59;;;22.75;40.21
80128;BME280;69440;52.118;5.408;2023-04-29T13:09:07;102168.50;;;22.32;40.05
80128;BME280;69440;52.118;5.408;2023-04-29T13:11:43;102170.63;;;22.28;40.27
80128;BME280;69440;52.118;5.408;2023-04-29T13:14:10;102170.41;;;23.23;39.83
80128;BME280;69440;52.118;5.408;2023-04-29T13:16:36;102171.13;;;23.84;38.34
80128;BME280;69440;52.118;5.408;2023-04-29T13:19:03;102172.84;;;24.53;36.99
80128;BME280;69440;52.118;5.408;2023-04-29T13:21:49;102178.69;;;23.33;36.60
80128;BME280;69440;52.118;5.408;2023-04-29T13:24:16;102170.19;;;23.45;37.30